sensor_id;sensor_type;location;lat;lon;timestamp;pressure;altitude;pressure_sealevel;temperature;humidity
8703;BME280;9002;42.708;23.186;2024-03-02T00:02:23;94426.22;;;8.90;66.45
8703;BME280;9002;42.708;23.186;2024-03-02T00:04:52;94440.94;;;8.90;66.98
8703;BME280;9002;42.708;23.186;2024-03-02T00:07:19;94438.88;;;8.92;66.53
8703;BME280;9002;42.708;23.186;2024-03-02T00:09:47;94438.19;;;8.79;66.59
8703;BME280;9002;42.708;23.186;2024-03-02T00:12:15;94434.38;;;8.82;67.41
8703;BME280;9002;42.708;23.186;2024-03-02T00:14:42;94440.72;;;8.96;67.00
8703;BME280;9002;42.708;23.186;2024-03-02T00:17:20;94436.84;;;8.94;66.40
8703;BME280;9002;42.708;23.186;2024-03-02T00:19:47;94436.28;;;8.92;66.14
8703;BME280;9002;42.708;23.186;2024-03-02T00:22:16;94437.75;;;8.82;67.06
8703;BME280;9002;42.708;23.186;2024-03-02T00:24:42;94422.91;;;8.73;67.42
8703;BME280;9002;42.708;23.186;2024-03-02T00:27:13;94423.63;;;8.90;66.38
8703;BME280;9002;42.708;23.186;2024-03-02T00:29:41;94430.00;;;8.82;67.18
8703;BME280;9002;42.708;23.186;2024-03-02T00:32:12;94428.06;;;8.95;65.96
8703;BME280;9002;42.708;23.186;2024-03-02T00:34:40;94419.47;;;8.89;66.23
8703;BME280;9002;42.708;23.186;2024-03-02T00:37:08;94415.03;;;8.85;66.28
8703;BME280;9002;42.708;23.186;2024-03-02T00:39:37;94422.94;;;8.78;66.91
8703;BME280;9002;42.708;23.186;2024-03-02T00:42:04;94410.28;;;8.76;66.50
8703;BME280;9002;42.708;23.186;2024-03-02T00:44:33;94418.09;;;8.81;66.74
8703;BME280;9002;42.708;23.186;2024-03-02T00:47:03;94408.59;;;8.87;66.93
8703;BME280;9002;42.708;23.186;2024-03-02T00:49:30;94398.16;;;8.77;66.70
8703;BME280;9002;42.708;23.186;2024-03-02T00:51:57;94387.63;;;8.62;66.98
8703;BME280;9002;42.708;23.186;2024-03-02T00:54:26;94413.84;;;8.92;67.13
8703;BME280;9002;42.708;23.186;2024-03-02T00:56:56;94415.63;;;8.92;66.00
8703;BME280;9002;42.708;23.186;2024-03-02T00:59:24;94405.59;;;8.95;65.86
8703;BME280;9002;42.708;23.186;2024-03-02T01:01:52;94411.09;;;9.04;64.95
8703;BME280;9002;42.708;23.186;2024-03-02T01:04:19;94404.28;;;8.93;65.06
8703;BME280;9002;42.708;23.186;2024-03-02T01:06:46;94413.41;;;9.00;65.35
8703;BME280;9002;42.708;23.186;2024-03-02T01:09:13;94416.94;;;8.94;66.43
8703;BME280;9002;42.708;23.186;2024-03-02T01:11:40;94420.31;;;8.95;66.17
8703;BME280;9002;42.708;23.186;2024-03-02T01:14:08;94403.44;;;8.87;65.81
8703;BME280;9002;42.708;23.186;2024-03-02T01:16:35;94401.97;;;8.96;66.43
8703;BME280;9002;42.708;23.186;2024-03-02T01:19:03;94406.19;;;9.02;65.39
8703;BME280;9002;42.708;23.186;2024-03-02T01:21:30;94396.53;;;8.93;66.76
8703;BME280;9002;42.708;23.186;2024-03-02T01:23:57;94395.13;;;9.07;65.06
8703;BME280;9002;42.708;23.186;2024-03-02T01:26:24;94405.91;;;8.99;66.31
8703;BME280;9002;42.708;23.186;2024-03-02T01:28:51;94393.53;;;9.01;65.47
8703;BME280;9002;42.708;23.186;2024-03-02T01:31:19;94397.47;;;9.08;66.40
8703;BME280;9002;42.708;23.186;2024-03-02T01:33:46;94390.97;;;9.06;66.16
8703;BME280;9002;42.708;23.186;2024-03-02T01:36:12;94388.03;;;8.97;65.74
8703;BME280;9002;42.708;23.186;2024-03-02T01:38:39;94379.81;;;9.00;66.85
8703;BME280;9002;42.708;23.186;2024-03-02T01:41:07;94381.22;;;8.86;66.62
8703;BME280;9002;42.708;23.186;2024-03-02T01:43:33;94376.28;;;8.85;67.61
8703;BME280;9002;42.708;23.186;2024-03-02T01:46:01;94384.66;;;8.92;67.48
8703;BME280;9002;42.708;23.186;2024-03-02T01:48:29;94380.00;;;8.94;67.92
8703;BME280;9002;42.708;23.186;2024-03-02T01:50:56;94373.78;;;8.90;66.32
8703;BME280;9002;42.708;23.186;2024-03-02T01:53:23;94368.13;;;8.93;67.45
8703;BME280;9002;42.708;23.186;2024-03-02T01:55:50;94364.03;;;9.24;66.30
8703;BME280;9002;42.708;23.186;2024-03-02T01:58:17;94382.16;;;9.29;66.01
8703;BME280;9002;42.708;23.186;2024-03-02T02:00:44;94376.31;;;9.38;66.38
8703;BME280;9002;42.708;23.186;2024-03-02T02:03:11;94362.22;;;9.24;65.54
8703;BME280;9002;42.708;23.186;2024-03-02T02:05:41;94377.00;;;9.29;66.58
8703;BME280;9002;42.708;23.186;2024-03-02T02:08:08;94378.16;;;9.43;66.83
8703;BME280;9002;42.708;23.186;2024-03-02T02:10:36;94373.81;;;9.49;65.22
8703;BME280;9002;42.708;23.186;2024-03-02T02:13:03;94373.72;;;9.38;66.32
8703;BME280;9002;42.708;23.186;2024-03-02T02:15:30;94371.34;;;9.32;67.04
8703;BME280;9002;42.708;23.186;2024-03-02T02:18:00;94359.63;;;9.24;66.33
8703;BME280;9002;42.708;23.186;2024-03-02T02:20:27;94380.09;;;9.04;68.15
8703;BME280;9002;42.708;23.186;2024-03-02T02:22:57;94371.81;;;9.02;67.60
8703;BME280;9002;42.708;23.186;2024-03-02T02:25:23;94375.63;;;9.21;66.74
8703;BME280;9002;42.708;23.186;2024-03-02T02:27:50;94361.81;;;9.37;67.36
8703;BME280;9002;42.708;23.186;2024-03-02T02:30:21;94382.47;;;9.64;66.56
8703;BME280;9002;42.708;23.186;2024-03-02T02:32:48;94384.69;;;9.51;66.33
8703;BME280;9002;42.708;23.186;2024-03-02T02:35:15;94386.81;;;9.59;65.62
8703;BME280;9002;42.708;23.186;2024-03-02T02:40:12;94377.19;;;9.22;67.26
8703;BME280;9002;42.708;23.186;2024-03-02T02:42:39;94387.94;;;9.41;67.23
8703;BME280;9002;42.708;23.186;2024-03-02T02:45:07;94383.38;;;9.21;66.85
8703;BME280;9002;42.708;23.186;2024-03-02T02:47:34;94380.84;;;9.26;67.20
8703;BME280;9002;42.708;23.186;2024-03-02T02:50:02;94385.69;;;9.18;67.62
8703;BME280;9002;42.708;23.186;2024-03-02T02:52:33;94373.00;;;9.16;67.05
8703;BME280;9002;42.708;23.186;2024-03-02T02:55:03;94388.13;;;9.29;67.07
8703;BME280;9002;42.708;23.186;2024-03-02T02:57:32;94394.56;;;9.59;66.08
8703;BME280;9002;42.708;23.186;2024-03-02T03:00:02;94391.84;;;9.71;65.05
8703;BME280;9002;42.708;23.186;2024-03-02T03:02:36;94389.09;;;9.87;64.34
8703;BME280;9002;42.708;23.186;2024-03-02T03:05:04;94391.84;;;10.08;63.68
8703;BME280;9002;42.708;23.186;2024-03-02T03:07:32;94397.34;;;10.21;63.82
8703;BME280;9002;42.708;23.186;2024-03-02T03:09:59;94377.09;;;10.08;64.71
8703;BME280;9002;42.708;23.186;2024-03-02T03:12:26;94391.38;;;10.16;63.69
8703;BME280;9002;42.708;23.186;2024-03-02T03:14:54;94390.81;;;9.72;64.94
8703;BME280;9002;42.708;23.186;2024-03-02T03:17:21;94379.19;;;9.74;64.63
8703;BME280;9002;42.708;23.186;2024-03-02T03:19:48;94383.31;;;9.43;67.65
8703;BME280;9002;42.708;23.186;2024-03-02T03:22:15;94385.78;;;9.60;66.57
8703;BME280;9002;42.708;23.186;2024-03-02T03:24:43;94392.72;;;9.86;65.64
8703;BME280;9002;42.708;23.186;2024-03-02T03:27:10;94389.72;;;10.05;64.43
8703;BME280;9002;42.708;23.186;2024-03-02T03:29:37;94393.19;;;10.20;64.76
8703;BME280;9002;42.708;23.186;2024-03-02T03:32:06;94376.91;;;10.20;63.23
8703;BME280;9002;42.708;23.186;2024-03-02T03:34:33;94391.34;;;10.11;65.97
8703;BME280;9002;42.708;23.186;2024-03-02T03:37:00;94391.13;;;10.17;64.56
8703;BME280;9002;42.708;23.186;2024-03-02T03:39:27;94386.81;;;9.96;65.06
8703;BME280;9002;42.708;23.186;2024-03-02T03:41:54;94387.22;;;9.78;65.52
8703;BME280;9002;42.708;23.186;2024-03-02T03:44:21;94390.31;;;9.75;67.08
8703;BME280;9002;42.708;23.186;2024-03-02T03:46:48;94369.16;;;9.51;66.25
8703;BME280;9002;42.708;23.186;2024-03-02T03:49:17;94388.78;;;9.47;68.21
8703;BME280;9002;42.708;23.186;2024-03-02T03:51:44;94389.53;;;9.74;67.05
8703;BME280;9002;42.708;23.186;2024-03-02T03:54:11;94363.16;;;9.77;66.69
8703;BME280;9002;42.708;23.186;2024-03-02T03:56:38;94385.47;;;9.88;65.25
8703;BME280;9002;42.708;23.186;2024-03-02T03:59:05;94389.19;;;9.98;65.89
8703;BME280;9002;42.708;23.186;2024-03-02T04:01:32;94382.81;;;10.15;64.69
8703;BME280;9002;42.708;23.186;2024-03-02T04:03:59;94392.50;;;10.30;64.45
8703;BME280;9002;42.708;23.186;2024-03-02T04:06:29;94385.28;;;10.32;63.96
8703;BME280;9002;42.708;23.186;2024-03-02T04:08:56;94393.13;;;10.47;64.88
8703;BME280;9002;42.708;23.186;2024-03-02T04:11:22;94370.28;;;10.39;63.59
8703;BME280;9002;42.708;23.186;2024-03-02T04:13:49;94390.06;;;10.56;63.21
8703;BME280;9002;42.708;23.186;2024-03-02T04:16:16;94379.34;;;10.37;65.06
8703;BME280;9002;42.708;23.186;2024-03-02T04:18:43;94391.31;;;10.43;65.12
8703;BME280;9002;42.708;23.186;2024-03-02T04:21:10;94367.78;;;10.07;65.02
8703;BME280;9002;42.708;23.186;2024-03-02T04:23:39;94372.16;;;9.70;66.36
8703;BME280;9002;42.708;23.186;2024-03-02T04:26:06;94371.16;;;9.76;66.47
8703;BME280;9002;42.708;23.186;2024-03-02T04:28:33;94395.81;;;9.88;67.01
8703;BME280;9002;42.708;23.186;2024-03-02T04:31:00;94391.94;;;9.86;66.16
8703;BME280;9002;42.708;23.186;2024-03-02T04:33:27;94393.03;;;9.95;66.55
8703;BME280;9002;42.708;23.186;2024-03-02T04:35:54;94368.41;;;9.87;65.97
8703;BME280;9002;42.708;23.186;2024-03-02T04:38:21;94390.94;;;9.92;67.00
8703;BME280;9002;42.708;23.186;2024-03-02T04:40:49;94356.72;;;9.80;66.55
8703;BME280;9002;42.708;23.186;2024-03-02T04:43:16;94393.72;;;10.17;64.90
8703;BME280;9002;42.708;23.186;2024-03-02T04:45:44;94402.28;;;10.23;64.97
8703;BME280;9002;42.708;23.186;2024-03-02T04:48:11;94392.72;;;9.86;66.35
8703;BME280;9002;42.708;23.186;2024-03-02T04:50:39;94402.41;;;10.06;66.14
8703;BME280;9002;42.708;23.186;2024-03-02T04:53:06;94401.81;;;9.94;66.99
8703;BME280;9002;42.708;23.186;2024-03-02T04:55:33;94401.72;;;9.79;66.23
8703;BME280;9002;42.708;23.186;2024-03-02T04:58:30;94393.16;;;9.73;67.40
8703;BME280;9002;42.708;23.186;2024-03-02T05:00:57;94399.88;;;9.74;67.25
8703;BME280;9002;42.708;23.186;2024-03-02T05:03:24;94409.00;;;9.87;66.03
8703;BME280;9002;42.708;23.186;2024-03-02T05:05:51;94404.72;;;9.65;67.07
8703;BME280;9002;42.708;23.186;2024-03-02T05:08:18;94400.66;;;9.75;68.00
8703;BME280;9002;42.708;23.186;2024-03-02T05:10:45;94405.56;;;9.71;68.76
8703;BME280;9002;42.708;23.186;2024-03-02T05:13:12;94408.16;;;9.76;69.51
8703;BME280;9002;42.708;23.186;2024-03-02T05:15:39;94390.69;;;9.29;70.30
8703;BME280;9002;42.708;23.186;2024-03-02T05:18:07;94394.56;;;9.27;70.49
8703;BME280;9002;42.708;23.186;2024-03-02T05:20:34;94411.88;;;9.53;70.20
8703;BME280;9002;42.708;23.186;2024-03-02T05:23:01;94413.09;;;9.46;69.72
8703;BME280;9002;42.708;23.186;2024-03-02T05:25:28;94422.91;;;9.44;69.09
8703;BME280;9002;42.708;23.186;2024-03-02T05:27:55;94423.56;;;9.34;69.59
8703;BME280;9002;42.708;23.186;2024-03-02T05:30:22;94431.56;;;9.32;71.23
8703;BME280;9002;42.708;23.186;2024-03-02T05:32:53;94420.06;;;9.45;70.20
8703;BME280;9002;42.708;23.186;2024-03-02T05:35:20;94407.47;;;9.27;69.94
8703;BME280;9002;42.708;23.186;2024-03-02T05:37:47;94428.88;;;9.49;69.34
8703;BME280;9002;42.708;23.186;2024-03-02T05:40:14;94435.84;;;9.49;70.22
8703;BME280;9002;42.708;23.186;2024-03-02T05:42:41;94424.56;;;9.60;69.27
8703;BME280;9002;42.708;23.186;2024-03-02T05:47:36;94426.53;;;9.48;69.27
8703;BME280;9002;42.708;23.186;2024-03-02T05:50:06;94431.34;;;9.66;68.79
8703;BME280;9002;42.708;23.186;2024-03-02T05:52:33;94450.03;;;9.73;68.62
8703;BME280;9002;42.708;23.186;2024-03-02T05:55:00;94457.44;;;9.91;69.49
8703;BME280;9002;42.708;23.186;2024-03-02T05:57:27;94453.75;;;9.87;69.80
8703;BME280;9002;42.708;23.186;2024-03-02T06:00:11;94453.88;;;9.98;68.30
8703;BME280;9002;42.708;23.186;2024-03-02T06:02:39;94452.25;;;9.91;68.53
8703;BME280;9002;42.708;23.186;2024-03-02T06:05:07;94451.56;;;10.01;69.59
8703;BME280;9002;42.708;23.186;2024-03-02T06:07:35;94450.28;;;10.04;69.81
8703;BME280;9002;42.708;23.186;2024-03-02T06:10:02;94439.56;;;9.90;69.80
8703;BME280;9002;42.708;23.186;2024-03-02T06:12:31;94452.97;;;9.82;70.98
8703;BME280;9002;42.708;23.186;2024-03-02T06:14:58;94452.13;;;9.76;70.68
8703;BME280;9002;42.708;23.186;2024-03-02T06:17:25;94448.09;;;9.58;71.63
8703;BME280;9002;42.708;23.186;2024-03-02T06:19:52;94449.03;;;9.79;71.39
8703;BME280;9002;42.708;23.186;2024-03-02T06:22:20;94449.63;;;9.86;71.14
8703;BME280;9002;42.708;23.186;2024-03-02T06:24:50;94458.00;;;9.99;69.07
8703;BME280;9002;42.708;23.186;2024-03-02T06:27:17;94454.47;;;10.10;69.38
8703;BME280;9002;42.708;23.186;2024-03-02T06:29:44;94459.91;;;10.13;69.74
8703;BME280;9002;42.708;23.186;2024-03-02T06:32:11;94462.59;;;9.91;70.54
8703;BME280;9002;42.708;23.186;2024-03-02T06:34:37;94453.63;;;9.99;69.72
8703;BME280;9002;42.708;23.186;2024-03-02T06:37:04;94451.69;;;9.84;69.28
8703;BME280;9002;42.708;23.186;2024-03-02T06:39:32;94462.81;;;9.58;72.53
8703;BME280;9002;42.708;23.186;2024-03-02T06:42:01;94460.09;;;9.43;71.94
8703;BME280;9002;42.708;23.186;2024-03-02T06:44:28;94456.38;;;9.33;72.66
8703;BME280;9002;42.708;23.186;2024-03-02T06:46:55;94469.09;;;9.62;72.46
8703;BME280;9002;42.708;23.186;2024-03-02T06:49:22;94466.03;;;9.43;71.60
8703;BME280;9002;42.708;23.186;2024-03-02T06:51:49;94458.38;;;9.26;72.98
8703;BME280;9002;42.708;23.186;2024-03-02T06:54:16;94467.19;;;9.30;72.33
8703;BME280;9002;42.708;23.186;2024-03-02T06:56:45;94471.88;;;9.33;73.25
8703;BME280;9002;42.708;23.186;2024-03-02T06:59:12;94480.28;;;9.46;72.19
8703;BME280;9002;42.708;23.186;2024-03-02T07:01:39;94477.47;;;9.25;72.96
8703;BME280;9002;42.708;23.186;2024-03-02T07:04:06;94460.97;;;9.04;72.88
8703;BME280;9002;42.708;23.186;2024-03-02T07:06:33;94472.09;;;9.27;72.16
8703;BME280;9002;42.708;23.186;2024-03-02T07:09:00;94481.50;;;9.38;72.16
8703;BME280;9002;42.708;23.186;2024-03-02T07:11:27;94480.44;;;9.61;72.12
8703;BME280;9002;42.708;23.186;2024-03-02T07:13:56;94477.19;;;9.44;72.04
8703;BME280;9002;42.708;23.186;2024-03-02T07:16:23;94464.78;;;9.24;71.64
8703;BME280;9002;42.708;23.186;2024-03-02T07:18:55;94475.44;;;9.27;72.00
8703;BME280;9002;42.708;23.186;2024-03-02T07:21:23;94482.19;;;9.28;71.55
8703;BME280;9002;42.708;23.186;2024-03-02T07:23:50;94484.22;;;9.26;72.14
8703;BME280;9002;42.708;23.186;2024-03-02T07:26:17;94484.59;;;9.35;72.20
8703;BME280;9002;42.708;23.186;2024-03-02T07:28:46;94483.25;;;9.32;72.40
8703;BME280;9002;42.708;23.186;2024-03-02T07:31:15;94477.72;;;9.24;72.72
8703;BME280;9002;42.708;23.186;2024-03-02T07:33:44;94486.09;;;9.09;72.92
8703;BME280;9002;42.708;23.186;2024-03-02T07:36:11;94490.00;;;9.12;73.24
8703;BME280;9002;42.708;23.186;2024-03-02T07:38:39;94484.09;;;8.94;74.22
8703;BME280;9002;42.708;23.186;2024-03-02T07:41:06;94482.84;;;9.19;73.17
8703;BME280;9002;42.708;23.186;2024-03-02T07:43:33;94496.63;;;9.51;72.33
8703;BME280;9002;42.708;23.186;2024-03-02T07:46:00;94502.78;;;9.45;71.97
8703;BME280;9002;42.708;23.186;2024-03-02T07:48:30;94499.97;;;9.52;71.20
8703;BME280;9002;42.708;23.186;2024-03-02T07:50:57;94487.94;;;9.35;72.32
8703;BME280;9002;42.708;23.186;2024-03-02T07:53:24;94500.63;;;9.37;73.49
8703;BME280;9002;42.708;23.186;2024-03-02T07:55:51;94495.13;;;9.55;70.46
8703;BME280;9002;42.708;23.186;2024-03-02T07:58:18;94496.72;;;9.61;70.28
8703;BME280;9002;42.708;23.186;2024-03-02T08:00:46;94495.88;;;9.29;72.18
8703;BME280;9002;42.708;23.186;2024-03-02T08:03:13;94504.59;;;9.72;70.29
8703;BME280;9002;42.708;23.186;2024-03-02T08:05:42;94509.44;;;9.90;69.32
8703;BME280;9002;42.708;23.186;2024-03-02T08:08:09;94507.53;;;9.53;70.43
8703;BME280;9002;42.708;23.186;2024-03-02T08:10:37;94499.06;;;9.36;71.83
8703;BME280;9002;42.708;23.186;2024-03-02T08:13:04;94506.63;;;9.70;71.11
8703;BME280;9002;42.708;23.186;2024-03-02T08:15:31;94513.41;;;9.76;70.71
8703;BME280;9002;42.708;23.186;2024-03-02T08:17:58;94510.88;;;9.32;71.91
8703;BME280;9002;42.708;23.186;2024-03-02T08:20:25;94517.16;;;9.36;72.69
8703;BME280;9002;42.708;23.186;2024-03-02T08:22:54;94514.34;;;9.64;71.91
8703;BME280;9002;42.708;23.186;2024-03-02T08:25:21;94513.91;;;9.46;72.03
8703;BME280;9002;42.708;23.186;2024-03-02T08:27:48;94511.69;;;9.59;71.34
8703;BME280;9002;42.708;23.186;2024-03-02T08:30:15;94501.34;;;9.32;72.88
8703;BME280;9002;42.708;23.186;2024-03-02T08:32:43;94500.63;;;9.37;72.01
8703;BME280;9002;42.708;23.186;2024-03-02T08:35:10;94510.53;;;9.23;73.62
8703;BME280;9002;42.708;23.186;2024-03-02T08:37:39;94494.59;;;9.31;73.68
8703;BME280;9002;42.708;23.186;2024-03-02T08:40:08;94489.75;;;9.35;72.07
8703;BME280;9002;42.708;23.186;2024-03-02T08:42:36;94505.03;;;9.63;71.64
8703;BME280;9002;42.708;23.186;2024-03-02T08:45:03;94502.00;;;9.45;72.99
8703;BME280;9002;42.708;23.186;2024-03-02T08:47:31;94514.59;;;9.41;73.73
8703;BME280;9002;42.708;23.186;2024-03-02T08:49:59;94505.94;;;9.52;72.06
8703;BME280;9002;42.708;23.186;2024-03-02T08:52:26;94495.50;;;9.42;73.34
8703;BME280;9002;42.708;23.186;2024-03-02T08:54:53;94507.13;;;9.66;71.80
8703;BME280;9002;42.708;23.186;2024-03-02T08:57:21;94494.91;;;9.35;72.03
8703;BME280;9002;42.708;23.186;2024-03-02T08:59:49;94504.47;;;9.61;72.04
8703;BME280;9002;42.708;23.186;2024-03-02T09:02:16;94504.69;;;9.82;72.33
8703;BME280;9002;42.708;23.186;2024-03-02T09:04:43;94497.72;;;9.82;71.48
8703;BME280;9002;42.708;23.186;2024-03-02T09:07:10;94506.22;;;10.10;70.42
8703;BME280;9002;42.708;23.186;2024-03-02T09:09:37;94509.44;;;10.22;70.66
8703;BME280;9002;42.708;23.186;2024-03-02T09:12:05;94514.41;;;10.29;70.07
8703;BME280;9002;42.708;23.186;2024-03-02T09:14:35;94491.25;;;9.85;71.25
8703;BME280;9002;42.708;23.186;2024-03-02T09:17:02;94505.19;;;10.11;69.84
8703;BME280;9002;42.708;23.186;2024-03-02T09:19:29;94523.56;;;10.41;69.73
8703;BME280;9002;42.708;23.186;2024-03-02T09:21:56;94527.34;;;10.61;68.83
8703;BME280;9002;42.708;23.186;2024-03-02T09:24:31;94508.00;;;10.36;69.35
8703;BME280;9002;42.708;23.186;2024-03-02T09:26:58;94522.06;;;10.50;69.36
8703;BME280;9002;42.708;23.186;2024-03-02T09:29:25;94527.97;;;10.41;70.12
8703;BME280;9002;42.708;23.186;2024-03-02T09:31:53;94510.03;;;10.29;68.48
8703;BME280;9002;42.708;23.186;2024-03-02T09:34:21;94527.31;;;9.96;71.02
8703;BME280;9002;42.708;23.186;2024-03-02T09:36:48;94509.38;;;9.85;69.74
8703;BME280;9002;42.708;23.186;2024-03-02T09:39:16;94533.06;;;10.04;70.95
8703;BME280;9002;42.708;23.186;2024-03-02T09:41:43;94527.41;;;10.34;69.58
8703;BME280;9002;42.708;23.186;2024-03-02T09:44:14;94533.47;;;10.49;68.64
8703;BME280;9002;42.708;23.186;2024-03-02T09:46:41;94535.41;;;10.32;67.84
8703;BME280;9002;42.708;23.186;2024-03-02T09:49:11;94529.94;;;10.29;67.63
8703;BME280;9002;42.708;23.186;2024-03-02T09:51:38;94535.03;;;10.50;67.81
8703;BME280;9002;42.708;23.186;2024-03-02T09:54:07;94526.59;;;10.33;68.24
8703;BME280;9002;42.708;23.186;2024-03-02T09:56:34;94526.78;;;10.54;67.40
8703;BME280;9002;42.708;23.186;2024-03-02T09:59:01;94534.69;;;10.37;70.45
8703;BME280;9002;42.708;23.186;2024-03-02T10:01:28;94536.50;;;10.36;70.25
8703;BME280;9002;42.708;23.186;2024-03-02T10:03:59;94538.16;;;10.52;69.82
8703;BME280;9002;42.708;23.186;2024-03-02T10:06:28;94516.56;;;10.37;68.90
8703;BME280;9002;42.708;23.186;2024-03-02T10:08:56;94517.25;;;10.27;68.91
8703;BME280;9002;42.708;23.186;2024-03-02T10:11:28;94523.94;;;10.55;68.78
8703;BME280;9002;42.708;23.186;2024-03-02T10:14:06;94526.53;;;10.60;68.04
8703;BME280;9002;42.708;23.186;2024-03-02T10:16:37;94509.97;;;10.24;69.53
8703;BME280;9002;42.708;23.186;2024-03-02T10:19:17;94487.31;;;9.77;70.63
8703;BME280;9002;42.708;23.186;2024-03-02T10:21:46;94507.50;;;10.07;70.29
8703;BME280;9002;42.708;23.186;2024-03-02T10:24:13;94517.06;;;10.34;70.22
8703;BME280;9002;42.708;23.186;2024-03-02T10:26:40;94527.19;;;10.08;71.49
8703;BME280;9002;42.708;23.186;2024-03-02T10:29:08;94535.31;;;10.22;69.97
8703;BME280;9002;42.708;23.186;2024-03-02T10:31:37;94536.66;;;9.98;71.44
8703;BME280;9002;42.708;23.186;2024-03-02T10:34:05;94523.72;;;9.98;70.37
8703;BME280;9002;42.708;23.186;2024-03-02T10:36:32;94531.50;;;9.98;72.06
8703;BME280;9002;42.708;23.186;2024-03-02T10:39:03;94512.97;;;10.11;69.66
8703;BME280;9002;42.708;23.186;2024-03-02T10:41:33;94523.34;;;10.43;68.79
8703;BME280;9002;42.708;23.186;2024-03-02T10:44:02;94524.53;;;10.30;68.65
8703;BME280;9002;42.708;23.186;2024-03-02T10:46:31;94527.22;;;10.45;68.61
8703;BME280;9002;42.708;23.186;2024-03-02T10:48:59;94523.03;;;10.39;68.92
8703;BME280;9002;42.708;23.186;2024-03-02T10:51:27;94518.78;;;10.60;68.24
8703;BME280;9002;42.708;23.186;2024-03-02T10:53:57;94514.28;;;10.45;69.50
8703;BME280;9002;42.708;23.186;2024-03-02T10:56:29;94511.00;;;10.60;70.07
8703;BME280;9002;42.708;23.186;2024-03-02T10:59:02;94520.44;;;10.39;69.25
8703;BME280;9002;42.708;23.186;2024-03-02T11:01:32;94515.88;;;10.19;70.32
8703;BME280;9002;42.708;23.186;2024-03-02T11:04:02;94510.28;;;10.01;70.24
8703;BME280;9002;42.708;23.186;2024-03-02T11:06:32;94513.72;;;10.11;71.64
8703;BME280;9002;42.708;23.186;2024-03-02T11:09:06;94521.25;;;10.13;72.00
8703;BME280;9002;42.708;23.186;2024-03-02T11:11:40;94512.09;;;10.27;71.33
8703;BME280;9002;42.708;23.186;2024-03-02T11:14:13;94502.31;;;10.34;70.94
8703;BME280;9002;42.708;23.186;2024-03-02T11:16:41;94511.94;;;10.44;70.98
8703;BME280;9002;42.708;23.186;2024-03-02T11:19:12;94512.34;;;10.26;71.68
8703;BME280;9002;42.708;23.186;2024-03-02T11:21:40;94504.16;;;10.12;70.61
8703;BME280;9002;42.708;23.186;2024-03-02T11:24:29;94505.69;;;10.35;69.79
8703;BME280;9002;42.708;23.186;2024-03-02T11:27:00;94499.53;;;10.51;70.00
8703;BME280;9002;42.708;23.186;2024-03-02T11:29:59;94507.47;;;10.34;71.07
8703;BME280;9002;42.708;23.186;2024-03-02T11:32:26;94482.31;;;9.98;70.55
8703;BME280;9002;42.708;23.186;2024-03-02T11:34:53;94510.19;;;9.90;73.33
8703;BME280;9002;42.708;23.186;2024-03-02T11:37:24;94501.63;;;10.17;71.35
8703;BME280;9002;42.708;23.186;2024-03-02T11:39:51;94503.44;;;10.48;70.34
8703;BME280;9002;42.708;23.186;2024-03-02T11:42:20;94494.50;;;10.02;72.83
8703;BME280;9002;42.708;23.186;2024-03-02T11:44:47;94502.06;;;10.09;72.13
8703;BME280;9002;42.708;23.186;2024-03-02T11:47:16;94505.44;;;10.41;70.79
8703;BME280;9002;42.708;23.186;2024-03-02T11:49:44;94510.22;;;10.60;71.05
8703;BME280;9002;42.708;23.186;2024-03-02T11:52:12;94507.69;;;10.65;69.54
8703;BME280;9002;42.708;23.186;2024-03-02T11:54:41;94498.25;;;10.16;71.30
8703;BME280;9002;42.708;23.186;2024-03-02T11:57:12;94501.69;;;10.22;71.43
8703;BME280;9002;42.708;23.186;2024-03-02T11:59:41;94501.88;;;10.47;69.68
8703;BME280;9002;42.708;23.186;2024-03-02T12:02:14;94498.75;;;10.45;70.94
8703;BME280;9002;42.708;23.186;2024-03-02T12:04:42;94492.59;;;10.57;70.39
8703;BME280;9002;42.708;23.186;2024-03-02T12:07:10;94499.09;;;10.22;71.23
8703;BME280;9002;42.708;23.186;2024-03-02T12:09:37;94500.50;;;10.35;70.63
8703;BME280;9002;42.708;23.186;2024-03-02T12:12:05;94492.34;;;10.58;69.75
8703;BME280;9002;42.708;23.186;2024-03-02T12:14:34;94497.41;;;10.80;69.31
8703;BME280;9002;42.708;23.186;2024-03-02T12:17:03;94500.94;;;10.64;69.15
8703;BME280;9002;42.708;23.186;2024-03-02T12:19:30;94498.91;;;10.71;68.90
8703;BME280;9002;42.708;23.186;2024-03-02T12:21:58;94472.03;;;10.35;68.84
8703;BME280;9002;42.708;23.186;2024-03-02T12:24:27;94484.25;;;10.49;69.39
8703;BME280;9002;42.708;23.186;2024-03-02T12:26:54;94501.22;;;10.67;69.53
8703;BME280;9002;42.708;23.186;2024-03-02T12:29:22;94505.13;;;10.33;69.28
8703;BME280;9002;42.708;23.186;2024-03-02T12:31:49;94498.03;;;10.55;68.38
8703;BME280;9002;42.708;23.186;2024-03-02T12:34:19;94503.47;;;10.59;69.53
8703;BME280;9002;42.708;23.186;2024-03-02T12:36:47;94499.59;;;10.56;68.82
8703;BME280;9002;42.708;23.186;2024-03-02T12:39:15;94497.91;;;10.77;67.58
8703;BME280;9002;42.708;23.186;2024-03-02T12:41:43;94501.63;;;10.49;68.22
8703;BME280;9002;42.708;23.186;2024-03-02T12:44:10;94497.63;;;10.73;68.91
8703;BME280;9002;42.708;23.186;2024-03-02T12:46:37;94488.09;;;10.79;67.14
8703;BME280;9002;42.708;23.186;2024-03-02T12:49:09;94496.44;;;10.91;66.13
8703;BME280;9002;42.708;23.186;2024-03-02T12:51:39;94505.78;;;10.97;66.56
8703;BME280;9002;42.708;23.186;2024-03-02T12:54:07;94502.69;;;11.00;66.86
8703;BME280;9002;42.708;23.186;2024-03-02T12:56:35;94488.69;;;10.96;66.83
8703;BME280;9002;42.708;23.186;2024-03-02T12:59:02;94495.09;;;10.84;66.76
8703;BME280;9002;42.708;23.186;2024-03-02T13:01:29;94509.34;;;10.86;67.30
8703;BME280;9002;42.708;23.186;2024-03-02T13:03:58;94511.94;;;10.86;66.90
8703;BME280;9002;42.708;23.186;2024-03-02T13:06:25;94491.09;;;10.61;67.77
8703;BME280;9002;42.708;23.186;2024-03-02T13:08:56;94498.47;;;10.84;67.52
8703;BME280;9002;42.708;23.186;2024-03-02T13:11:23;94494.88;;;10.95;67.36
8703;BME280;9002;42.708;23.186;2024-03-02T13:13:50;94511.31;;;11.21;66.59
8703;BME280;9002;42.708;23.186;2024-03-02T13:16:18;94503.59;;;10.74;67.12
8703;BME280;9002;42.708;23.186;2024-03-02T13:18:46;94507.84;;;10.95;67.57
8703;BME280;9002;42.708;23.186;2024-03-02T13:21:13;94513.28;;;10.94;66.33
8703;BME280;9002;42.708;23.186;2024-03-02T13:23:41;94508.56;;;10.86;65.78
8703;BME280;9002;42.708;23.186;2024-03-02T13:26:09;94506.84;;;11.01;65.55
8703;BME280;9002;42.708;23.186;2024-03-02T13:28:38;94516.50;;;11.21;65.85